Time;durP1;ratioP1;P1;durP2;ratioP2;P2;SDS_P1;SDS_P2;PMS_P1;PMS_P2;Temp;Humidity;BMP_temperature;BMP_pressure;BME280_temperature;BME280_humidity;BME280_pressure;Samples;Min_cycle;Max_cycle;Signal;HPM_P1;HPM_P2
2021/06/04 00:01:37;;;;;;;4.72;4.05;;;;;;;;;;5035143;28;20080;-59
2021/06/04 00:04:04;;;;;;;5.35;3.92;;;;;;;;;;4976645;28;20465;-59
2021/06/04 00:06:30;;;;;;;7.72;4.32;;;;;;;;;;5025447;28;20034;-59
2021/06/04 00:08:56;;;;;;;4.85;3.85;;;;;;;;;;5037425;28;20091;-59
2021/06/04 00:11:31;;;;;;;5.00;4.10;;;;;;;;;;5037578;28;20045;-59
2021/06/04 00:13:59;;;;;;;4.47;3.35;;;;;;;;;;5037345;28;20498;-59
2021/06/04 00:16:30;;;;;;;7.38;3.58;;;;;;;;;;5037902;28;20024;-59
2021/06/04 00:18:56;;;;;;;4.38;3.03;;;;;;;;;;5037095;28;20034;-59
2021/06/04 00:21:28;;;;;;;5.25;3.65;;;;;;;;;;5036616;28;20025;-59
2021/06/04 00:23:57;;;;;;;4.10;3.00;;;;;;;;;;5037506;28;20037;-59
2021/06/04 00:26:23;;;;;;;4.22;3.33;;;;;;;;;;5037225;28;20022;-59
2021/06/04 00:28:50;;;;;;;4.18;2.80;;;;;;;;;;5037960;28;20155;-59
2021/06/04 00:31:16;;;;;;;4.00;3.58;;;;;;;;;;5037503;28;20018;-59
2021/06/04 00:33:43;;;;;;;5.28;3.00;;;;;;;;;;5037100;28;20026;-59
2021/06/04 00:36:09;;;;;;;4.40;3.30;;;;;;;;;;5037640;28;20029;-59
2021/06/04 00:38:35;;;;;;;6.18;3.08;;;;;;;;;;5037084;28;20079;-59
2021/06/04 00:41:04;;;;;;;4.82;4.03;;;;;;;;;;5037569;28;20029;-59
2021/06/04 00:43:30;;;;;;;5.20;4.25;;;;;;;;;;5036833;28;20374;-59
2021/06/04 00:45:57;;;;;;;5.90;3.25;;;;;;;;;;5036896;28;20124;-59
2021/06/04 00:48:25;;;;;;;5.78;3.95;;;;;;;;;;5036839;28;20026;-59
2021/06/04 00:50:54;;;;;;;8.02;3.10;;;;;;;;;;5037700;28;20021;-59
2021/06/04 00:53:22;;;;;;;4.45;3.25;;;;;;;;;;5036900;28;20537;-59
2021/06/04 00:55:48;;;;;;;4.15;3.55;;;;;;;;;;5037208;28;20029;-59
2021/06/04 00:58:16;;;;;;;3.10;2.75;;;;;;;;;;5036924;28;20053;-59
2021/06/04 01:00:47;;;;;;;5.03;3.40;;;;;;;;;;5054205;28;20041;-58
2021/06/04 01:03:13;;;;;;;4.05;3.35;;;;;;;;;;5057043;28;20454;-59
2021/06/04 01:05:41;;;;;;;2.92;2.28;;;;;;;;;;5057055;28;20024;-59
2021/06/04 01:08:10;;;;;;;5.47;3.40;;;;;;;;;;5056703;28;20442;-59
2021/06/04 01:10:48;;;;;;;4.22;2.95;;;;;;;;;;5056377;28;20031;-59
2021/06/04 01:13:31;;;;;;;4.53;3.28;;;;;;;;;;5056233;28;20056;-59
2021/06/04 01:16:07;;;;;;;3.80;3.17;;;;;;;;;;5056880;28;20366;-59
2021/06/04 01:18:37;;;;;;;5.80;3.00;;;;;;;;;;5056806;28;20025;-59
2021/06/04 01:21:30;;;;;;;3.30;2.50;;;;;;;;;;5056527;28;20454;-59
2021/06/04 01:24:12;;;;;;;3.60;3.13;;;;;;;;;;5051849;28;20051;-59
2021/06/04 01:26:48;;;;;;;5.63;3.13;;;;;;;;;;5055990;28;20021;-59
2021/06/04 01:29:16;;;;;;;5.35;3.83;;;;;;;;;;5055697;28;20021;-59
2021/06/04 01:31:47;;;;;;;3.58;2.85;;;;;;;;;;5056557;28;20474;-58
2021/06/04 01:34:15;;;;;;;3.63;3.13;;;;;;;;;;5055965;28;20040;-59
2021/06/04 01:36:46;;;;;;;4.60;3.45;;;;;;;;;;5055805;28;20021;-59
2021/06/04 01:39:17;;;;;;;5.88;3.60;;;;;;;;;;5055788;28;20025;-59
2021/06/04 01:41:44;;;;;;;4.47;3.35;;;;;;;;;;5055986;28;20466;-59
2021/06/04 01:44:17;;;;;;;5.72;3.53;;;;;;;;;;5055585;28;20025;-59
2021/06/04 01:46:45;;;;;;;3.92;3.08;;;;;;;;;;5056272;28;20416;-58
2021/06/04 01:49:15;;;;;;;5.47;3.75;;;;;;;;;;5056179;28;20029;-58
2021/06/04 01:51:43;;;;;;;4.50;3.50;;;;;;;;;;5055674;28;20021;-59
2021/06/04 01:54:18;;;;;;;5.13;3.83;;;;;;;;;;5037672;28;20021;-58
2021/06/04 01:56:47;;;;;;;4.53;2.95;;;;;;;;;;5055416;28;20029;-59
2021/06/04 01:59:16;;;;;;;4.10;3.50;;;;;;;;;;5055443;28;20128;-59
2021/06/04 02:01:43;;;;;;;4.50;3.72;;;;;;;;;;5037483;28;20017;-58
2021/06/04 02:04:11;;;;;;;4.10;3.67;;;;;;;;;;5037394;28;20044;-59
2021/06/04 02:06:37;;;;;;;5.03;4.00;;;;;;;;;;5055849;28;20029;-59
2021/06/04 02:09:07;;;;;;;7.45;5.35;;;;;;;;;;5055818;28;20025;-58
2021/06/04 02:11:33;;;;;;;4.83;4.30;;;;;;;;;;5055844;28;20021;-59
2021/06/04 02:14:06;;;;;;;5.35;4.57;;;;;;;;;;5055104;28;20020;-59
2021/06/04 02:16:50;;;;;;;6.20;4.68;;;;;;;;;;5054776;28;20320;-59
2021/06/04 02:19:22;;;;;;;4.75;4.25;;;;;;;;;;5037164;28;20025;-59
2021/06/04 02:21:57;;;;;;;6.10;5.50;;;;;;;;;;5055576;28;20017;-59
2021/06/04 02:24:28;;;;;;;6.90;5.95;;;;;;;;;;5053613;28;20395;-59
2021/06/04 02:27:00;;;;;;;7.55;5.00;;;;;;;;;;5055474;28;20408;-59
2021/06/04 02:29:33;;;;;;;5.68;5.10;;;;;;;;;;5054797;28;20033;-59
2021/06/04 02:32:17;;;;;;;8.25;5.20;;;;;;;;;;5055065;28;20032;-59
2021/06/04 02:34:54;;;;;;;6.15;5.43;;;;;;;;;;5054726;28;20417;-59
2021/06/04 02:37:22;;;;;;;8.35;4.97;;;;;;;;;;5055055;28;20021;-59
2021/06/04 02:39:50;;;;;;;6.20;5.20;;;;;;;;;;5054553;28;20461;-59
2021/06/04 02:42:22;;;;;;;6.63;4.80;;;;;;;;;;5037304;28;20371;-59
2021/06/04 02:44:53;;;;;;;5.95;5.32;;;;;;;;;;5054974;28;20036;-59
2021/06/04 02:47:24;;;;;;;6.68;5.78;;;;;;;;;;5054544;28;20033;-59
2021/06/04 02:49:50;;;;;;;7.45;5.80;;;;;;;;;;5054997;28;20029;-59
2021/06/04 02:52:32;;;;;;;9.80;8.90;;;;;;;;;;5054443;28;20032;-59
2021/06/04 02:54:58;;;;;;;10.90;9.05;;;;;;;;;;5054390;28;20052;-59
2021/06/04 02:57:26;;;;;;;9.35;8.45;;;;;;;;;;5054555;28;20029;-59
2021/06/04 02:59:52;;;;;;;9.63;8.23;;;;;;;;;;5054073;28;20041;-59
2021/06/04 03:02:24;;;;;;;7.63;6.85;;;;;;;;;;5054546;28;20033;-59
2021/06/04 03:04:51;;;;;;;8.27;7.47;;;;;;;;;;5054138;28;20112;-59
2021/06/04 03:07:23;;;;;;;7.65;6.90;;;;;;;;;;5054403;28;20083;-59
2021/06/04 03:09:49;;;;;;;7.35;6.65;;;;;;;;;;5054461;28;20029;-59
2021/06/04 03:12:26;;;;;;;7.97;7.22;;;;;;;;;;5053021;28;20037;-59
2021/06/04 03:14:53;;;;;;;6.72;6.10;;;;;;;;;;5054382;28;20064;-59
2021/06/04 03:17:21;;;;;;;7.57;6.88;;;;;;;;;;5053969;28;20032;-59
2021/06/04 03:19:47;;;;;;;6.70;5.85;;;;;;;;;;5054238;28;20067;-59
2021/06/04 03:22:15;;;;;;;6.50;5.85;;;;;;;;;;5053730;28;20025;-59
2021/06/04 03:24:43;;;;;;;7.43;5.90;;;;;;;;;;5054106;28;20028;-59
2021/06/04 03:27:10;;;;;;;7.85;5.40;;;;;;;;;;5053884;28;20044;-59
2021/06/04 03:29:36;;;;;;;7.63;6.15;;;;;;;;;;5054050;28;20068;-59
2021/06/04 03:32:05;;;;;;;5.80;5.13;;;;;;;;;;5054686;28;20021;-59
2021/06/04 03:34:31;;;;;;;6.30;5.68;;;;;;;;;;5036282;28;20525;-59
2021/06/04 03:36:59;;;;;;;7.25;5.40;;;;;;;;;;5053741;28;20070;-59
2021/06/04 03:39:27;;;;;;;5.80;5.22;;;;;;;;;;5053716;28;20025;-59
2021/06/04 03:41:53;;;;;;;6.47;5.30;;;;;;;;;;5054567;28;20116;-59
2021/06/04 03:44:21;;;;;;;5.97;4.78;;;;;;;;;;5053563;28;20382;-60
2021/06/04 03:46:47;;;;;;;5.65;5.15;;;;;;;;;;5053622;28;20464;-59
2021/06/04 03:49:15;;;;;;;7.38;6.35;;;;;;;;;;5054069;28;20021;-59
2021/06/04 03:51:42;;;;;;;6.63;5.97;;;;;;;;;;5053882;28;20025;-59
2021/06/04 03:54:09;;;;;;;5.47;4.97;;;;;;;;;;5053247;28;20486;-59
2021/06/04 03:56:35;;;;;;;6.32;5.75;;;;;;;;;;5053792;28;20103;-59
2021/06/04 03:59:02;;;;;;;7.57;6.03;;;;;;;;;;5053585;28;20479;-59
2021/06/04 04:01:32;;;;;;;7.20;6.40;;;;;;;;;;5053457;28;20032;-59
2021/06/04 04:03:58;;;;;;;6.43;5.72;;;;;;;;;;5035582;28;20028;-59
2021/06/04 04:06:24;;;;;;;6.65;5.95;;;;;;;;;;5053277;28;20025;-59
2021/06/04 04:08:50;;;;;;;8.00;6.75;;;;;;;;;;5053018;28;20074;-59
2021/06/04 04:11:16;;;;;;;7.60;6.55;;;;;;;;;;5053512;28;20036;-59
2021/06/04 04:13:42;;;;;;;8.63;6.72;;;;;;;;;;5053181;28;20434;-59
2021/06/04 04:16:09;;;;;;;12.30;6.00;;;;;;;;;;5053155;28;20029;-59
2021/06/04 04:18:35;;;;;;;6.35;5.70;;;;;;;;;;5053435;28;20025;-59
2021/06/04 04:21:04;;;;;;;9.02;6.00;;;;;;;;;;5053146;28;20136;-59
2021/06/04 04:23:35;;;;;;;6.00;5.43;;;;;;;;;;5053046;28;20033;-59
2021/06/04 04:26:04;;;;;;;6.97;5.57;;;;;;;;;;5052883;28;20029;-59
2021/06/04 04:28:32;;;;;;;8.77;5.95;;;;;;;;;;5053265;28;20455;-59
2021/06/04 04:30:59;;;;;;;7.00;5.75;;;;;;;;;;5053559;28;20068;-59
2021/06/04 04:33:25;;;;;;;6.22;4.93;;;;;;;;;;5053762;28;20071;-59
2021/06/04 04:35:52;;;;;;;6.80;4.28;;;;;;;;;;5053708;28;20402;-59
2021/06/04 04:38:20;;;;;;;6.40;4.95;;;;;;;;;;5035195;28;20024;-59
2021/06/04 04:40:48;;;;;;;11.68;5.80;;;;;;;;;;5053995;28;20021;-59
2021/06/04 04:43:14;;;;;;;5.80;5.20;;;;;;;;;;5053509;28;20421;-59
2021/06/04 04:45:41;;;;;;;7.40;4.50;;;;;;;;;;5053137;28;20437;-59
2021/06/04 04:48:07;;;;;;;6.63;5.90;;;;;;;;;;5038834;28;20028;-59
2021/06/04 04:50:35;;;;;;;5.47;4.97;;;;;;;;;;5056937;28;20032;-59
2021/06/04 04:53:02;;;;;;;6.30;4.97;;;;;;;;;;5056636;28;20024;-59
2021/06/04 04:55:29;;;;;;;6.90;5.57;;;;;;;;;;5056869;28;20021;-59
2021/06/04 04:57:55;;;;;;;4.78;4.32;;;;;;;;;;5056589;28;20025;-59
2021/06/04 05:00:23;;;;;;;5.57;5.00;;;;;;;;;;5056709;28;20486;-59
2021/06/04 05:02:50;;;;;;;6.88;6.07;;;;;;;;;;5056420;28;20090;-59
2021/06/04 05:05:16;;;;;;;6.68;5.85;;;;;;;;;;5056739;28;20082;-60
2021/06/04 05:07:42;;;;;;;6.57;5.28;;;;;;;;;;5056682;28;20075;-59
2021/06/04 05:10:12;;;;;;;8.10;5.72;;;;;;;;;;5056465;28;20025;-59
2021/06/04 05:12:38;;;;;;;5.70;5.20;;;;;;;;;;5056455;28;20051;-60
2021/06/04 05:15:07;;;;;;;6.60;5.95;;;;;;;;;;5056278;28;20136;-59
2021/06/04 05:17:33;;;;;;;6.40;5.20;;;;;;;;;;5056205;28;20060;-59
2021/06/04 05:20:00;;;;;;;5.80;5.30;;;;;;;;;;5057014;28;20028;-59
2021/06/04 05:22:26;;;;;;;6.00;5.35;;;;;;;;;;5056622;28;20032;-59
2021/06/04 05:24:53;;;;;;;6.40;5.10;;;;;;;;;;5055893;28;20025;-59
2021/06/04 05:27:19;;;;;;;7.07;5.13;;;;;;;;;;5055944;28;20434;-59
2021/06/04 05:29:45;;;;;;;7.20;4.57;;;;;;;;;;5056061;28;20021;-59
2021/06/04 05:32:11;;;;;;;6.63;5.20;;;;;;;;;;5056500;28;20029;-59
2021/06/04 05:34:37;;;;;;;9.20;5.60;;;;;;;;;;5055964;28;20025;-59
2021/06/04 05:37:04;;;;;;;5.57;4.97;;;;;;;;;;5056456;28;20460;-59
2021/06/04 05:39:30;;;;;;;6.28;5.68;;;;;;;;;;5056039;28;20068;-59
2021/06/04 05:41:59;;;;;;;5.97;4.78;;;;;;;;;;5055809;28;20028;-59
2021/06/04 05:44:26;;;;;;;7.30;5.85;;;;;;;;;;5055677;28;20025;-59
2021/06/04 05:46:53;;;;;;;5.22;4.63;;;;;;;;;;5055963;28;20056;-59
2021/06/04 05:49:21;;;;;;;5.40;4.90;;;;;;;;;;5038334;28;20435;-59
2021/06/04 05:51:47;;;;;;;5.30;4.80;;;;;;;;;;5055505;28;20021;-59
2021/06/04 05:54:14;;;;;;;5.07;4.13;;;;;;;;;;5055264;28;20103;-59
2021/06/04 05:56:40;;;;;;;5.55;4.55;;;;;;;;;;5055442;28;20031;-59
2021/06/04 05:59:06;;;;;;;4.28;3.75;;;;;;;;;;5037707;28;20489;-59
2021/06/04 06:01:33;;;;;;;4.70;4.20;;;;;;;;;;5055793;28;20017;-59
2021/06/04 06:04:00;;;;;;;5.63;3.95;;;;;;;;;;5055232;28;20025;-59
2021/06/04 06:06:26;;;;;;;4.05;3.65;;;;;;;;;;5055372;28;20035;-59
2021/06/04 06:08:52;;;;;;;4.93;4.43;;;;;;;;;;5055347;28;20021;-59
2021/06/04 06:11:25;;;;;;;4.35;3.13;;;;;;;;;;5055504;28;20075;-59
2021/06/04 06:13:51;;;;;;;4.63;3.17;;;;;;;;;;5055489;28;20033;-59
2021/06/04 06:16:18;;;;;;;4.30;3.47;;;;;;;;;;5055035;28;20056;-59
2021/06/04 06:18:44;;;;;;;3.75;2.90;;;;;;;;;;5055281;28;20447;-59
2021/06/04 06:21:11;;;;;;;4.53;2.17;;;;;;;;;;5055660;28;20025;-59
2021/06/04 06:23:37;;;;;;;4.28;2.80;;;;;;;;;;5055223;28;20021;-59
2021/06/04 06:26:06;;;;;;;3.13;2.58;;;;;;;;;;5054984;28;20397;-59
2021/06/04 06:28:33;;;;;;;3.50;2.95;;;;;;;;;;5055189;28;20540;-59
2021/06/04 06:31:00;;;;;;;4.05;3.15;;;;;;;;;;5054925;28;20029;-59
2021/06/04 06:33:26;;;;;;;3.30;2.58;;;;;;;;;;5055314;28;20424;-59
2021/06/04 06:35:56;;;;;;;6.75;3.13;;;;;;;;;;5055398;28;20021;-59
2021/06/04 06:38:23;;;;;;;3.35;2.70;;;;;;;;;;5055351;28;20426;-59
2021/06/04 06:40:50;;;;;;;4.18;2.67;;;;;;;;;;5054700;28;20036;-59
2021/06/04 06:43:16;;;;;;;5.75;3.33;;;;;;;;;;5054920;28;20091;-59
2021/06/04 06:45:43;;;;;;;2.97;2.20;;;;;;;;;;5054577;28;20104;-60
2021/06/04 06:48:09;;;;;;;3.10;2.38;;;;;;;;;;5054484;28;20025;-60
2021/06/04 06:50:36;;;;;;;3.40;1.95;;;;;;;;;;5053643;28;20485;-60
2021/06/04 06:53:06;;;;;;;4.32;2.28;;;;;;;;;;5054400;28;20029;-60
2021/06/04 06:55:32;;;;;;;2.45;1.95;;;;;;;;;;5054785;28;20032;-60
2021/06/04 06:57:59;;;;;;;3.70;2.38;;;;;;;;;;5053889;28;20379;-60
2021/06/04 07:00:28;;;;;;;4.40;2.95;;;;;;;;;;5054397;28;20076;-60
2021/06/04 07:02:54;;;;;;;5.30;3.45;;;;;;;;;;5054478;28;20079;-60
2021/06/04 07:05:21;;;;;;;3.35;2.85;;;;;;;;;;5053904;28;20060;-60
2021/06/04 07:07:47;;;;;;;3.90;2.63;;;;;;;;;;5054206;28;20132;-60
2021/06/04 07:10:15;;;;;;;6.18;4.00;;;;;;;;;;5053658;28;20032;-60
2021/06/04 07:12:41;;;;;;;4.55;3.90;;;;;;;;;;5054733;28;20108;-60
2021/06/04 07:15:08;;;;;;;4.10;3.60;;;;;;;;;;5053772;28;20033;-60
2021/06/04 07:17:34;;;;;;;4.68;4.05;;;;;;;;;;5053780;28;20471;-60
2021/06/04 07:20:00;;;;;;;4.38;3.50;;;;;;;;;;5053943;28;20025;-59
2021/06/04 07:22:26;;;;;;;4.60;3.85;;;;;;;;;;5053961;28;20056;-60
2021/06/04 07:24:52;;;;;;;5.05;3.78;;;;;;;;;;5053852;28;20067;-60
2021/06/04 07:27:19;;;;;;;4.63;4.20;;;;;;;;;;5053933;28;20348;-60
2021/06/04 07:29:45;;;;;;;4.75;4.32;;;;;;;;;;5054349;28;20061;-60
2021/06/04 07:32:11;;;;;;;4.93;3.88;;;;;;;;;;5053993;28;20070;-60
2021/06/04 07:34:37;;;;;;;4.93;4.25;;;;;;;;;;5054142;28;20033;-60
2021/06/04 07:37:04;;;;;;;4.60;3.92;;;;;;;;;;5053845;28;20020;-60
2021/06/04 07:39:31;;;;;;;5.22;4.15;;;;;;;;;;5053707;28;20029;-59
2021/06/04 07:41:59;;;;;;;5.47;3.40;;;;;;;;;;5053850;28;20064;-59
2021/06/04 07:44:26;;;;;;;5.03;3.88;;;;;;;;;;5054168;28;20123;-59
2021/06/04 07:46:53;;;;;;;5.15;3.78;;;;;;;;;;5053933;28;20057;-59
2021/06/04 07:49:20;;;;;;;4.85;4.20;;;;;;;;;;5054392;28;20059;-59
2021/06/04 07:51:47;;;;;;;4.60;3.90;;;;;;;;;;5054140;28;20479;-61
2021/06/04 07:54:14;;;;;;;3.30;3.00;;;;;;;;;;5053529;28;20106;-59
2021/06/04 07:56:42;;;;;;;6.03;3.63;;;;;;;;;;5053532;28;20025;-59
2021/06/04 07:59:08;;;;;;;3.63;3.22;;;;;;;;;;5053495;28;20049;-59
2021/06/04 08:01:35;;;;;;;3.60;2.95;;;;;;;;;;5053823;28;20029;-59
2021/06/04 08:04:04;;;;;;;3.50;2.67;;;;;;;;;;5053164;28;20467;-59
2021/06/04 08:06:29;;;;;;;3.78;2.47;;;;;;;;;;5053553;28;20056;-59
2021/06/04 08:08:56;;;;;;;3.60;2.70;;;;;;;;;;5053548;28;20549;-59
2021/06/04 08:11:27;;;;;;;3.78;2.28;;;;;;;;;;5053496;28;20025;-59
2021/06/04 08:14:07;;;;;;;6.20;2.70;;;;;;;;;;5053965;28;20021;-59
2021/06/04 08:16:35;;;;;;;4.18;2.40;;;;;;;;;;5053859;28;20362;-59
2021/06/04 08:19:01;;;;;;;3.90;2.25;;;;;;;;;;5053753;28;20047;-59
2021/06/04 08:21:31;;;;;;;5.35;2.33;;;;;;;;;;5054603;28;20021;-59
2021/06/04 08:23:57;;;;;;;4.57;2.53;;;;;;;;;;5056906;28;20028;-59
2021/06/04 08:26:24;;;;;;;3.28;2.28;;;;;;;;;;5039957;28;20083;-59
2021/06/04 08:28:50;;;;;;;3.33;2.75;;;;;;;;;;5057324;28;20032;-59
2021/06/04 08:31:18;;;;;;;2.78;1.95;;;;;;;;;;5057833;28;20017;-59
2021/06/04 08:33:45;;;;;;;4.78;2.28;;;;;;;;;;5057127;28;20481;-59
2021/06/04 08:36:13;;;;;;;5.03;1.98;;;;;;;;;;5057274;28;20108;-59
2021/06/04 08:38:41;;;;;;;3.90;2.20;;;;;;;;;;5056721;28;20112;-59
2021/06/04 08:41:14;;;;;;;2.25;1.40;;;;;;;;;;5057032;28;20067;-59
2021/06/04 08:43:55;;;;;;;2.63;1.63;;;;;;;;;;5057294;28;20028;-59
2021/06/04 08:46:21;;;;;;;3.90;1.55;;;;;;;;;;5057356;28;20021;-59
2021/06/04 08:48:50;;;;;;;2.13;1.60;;;;;;;;;;5056906;28;20032;-59
2021/06/04 08:51:30;;;;;;;4.55;1.38;;;;;;;;;;5039283;28;20025;-59
2021/06/04 08:53:56;;;;;;;;;;;;;;;;;;5057271;28;20025;-59
2021/06/04 08:56:44;;;;;;;2.47;1.48;;;;;;;;;;5056725;28;19912;-59
2021/06/04 08:59:11;;;;;;;2.67;1.52;;;;;;;;;;5056956;28;20106;-59
2021/06/04 09:01:52;;;;;;;3.63;2.08;;;;;;;;;;5056988;28;20028;-59
2021/06/04 09:04:21;;;;;;;3.75;1.88;;;;;;;;;;5056508;28;20029;-59
2021/06/04 09:07:07;;;;;;;4.40;1.92;;;;;;;;;;5056539;28;20424;-59
2021/06/04 09:09:52;;;;;;;2.35;1.58;;;;;;;;;;5056530;28;20162;-59
2021/06/04 09:12:20;;;;;;;1.80;1.30;;;;;;;;;;5057059;28;20029;-59
2021/06/04 09:14:47;;;;;;;2.92;2.20;;;;;;;;;;5056624;28;20036;-60
2021/06/04 09:17:16;;;;;;;3.30;1.83;;;;;;;;;;5056655;28;20107;-60
2021/06/04 09:19:48;;;;;;;2.25;1.35;;;;;;;;;;5056370;28;20063;-60
2021/06/04 09:22:14;;;;;;;3.92;1.65;;;;;;;;;;5056849;28;20363;-59
2021/06/04 09:24:47;;;;;;;4.15;2.20;;;;;;;;;;5056235;28;20159;-60
2021/06/04 09:27:27;;;;;;;2.50;1.58;;;;;;;;;;5056101;28;20352;-59
2021/06/04 09:29:53;;;;;;;;;;;;;;;;;;5038645;28;20036;-59
2021/06/04 09:32:23;;;;;;;3.50;2.50;;;;;;;;;;5055714;28;19905;-59
2021/06/04 09:34:49;;;;;;;5.10;3.30;;;;;;;;;;5055992;28;20070;-59
2021/06/04 09:37:33;;;;;;;3.42;2.75;;;;;;;;;;5055874;28;20465;-59
2021/06/04 09:40:18;;;;;;;7.43;2.47;;;;;;;;;;5055719;28;20112;-59
2021/06/04 09:42:49;;;;;;;3.17;2.25;;;;;;;;;;5056107;28;20100;-59
2021/06/04 09:45:22;;;;;;;4.93;3.40;;;;;;;;;;5055563;28;20083;-59
2021/06/04 09:47:59;;;;;;;4.05;2.38;;;;;;;;;;5056353;28;20028;-59
2021/06/04 09:50:28;;;;;;;4.00;2.92;;;;;;;;;;5056128;28;20375;-59
2021/06/04 09:53:03;;;;;;;3.90;2.95;;;;;;;;;;5056039;28;20060;-59
2021/06/04 09:55:30;;;;;;;3.92;2.60;;;;;;;;;;5055490;28;20036;-59
2021/06/04 09:57:59;;;;;;;3.10;2.75;;;;;;;;;;5055455;28;20076;-59
2021/06/04 10:00:45;;;;;;;4.65;3.38;;;;;;;;;;5055940;28;20052;-59
2021/06/04 10:03:17;;;;;;;6.03;2.50;;;;;;;;;;5055448;28;20033;-59
2021/06/04 10:05:44;;;;;;;3.28;2.40;;;;;;;;;;5055507;28;20075;-59
2021/06/04 10:08:19;;;;;;;2.83;2.38;;;;;;;;;;5055376;28;20083;-60
2021/06/04 10:10:47;;;;;;;6.03;3.25;;;;;;;;;;5055660;28;20151;-59
2021/06/04 10:13:35;;;;;;;3.63;2.75;;;;;;;;;;5055043;28;20139;-59
2021/06/04 10:16:03;;;;;;;3.30;2.67;;;;;;;;;;5055761;28;20107;-59
2021/06/04 10:18:34;;;;;;;3.58;2.58;;;;;;;;;;5055127;28;20017;-59
2021/06/04 10:21:18;;;;;;;5.00;2.60;;;;;;;;;;5055744;28;20013;-59
2021/06/04 10:23:46;;;;;;;4.78;2.83;;;;;;;;;;5055748;28;20122;-59
2021/06/04 10:26:41;;;;;;;3.28;2.88;;;;;;;;;;5055051;28;20371;-59
2021/06/04 10:29:07;;;;;;;2.95;2.10;;;;;;;;;;5034085;28;20029;-59
2021/06/04 10:31:33;;;;;;;3.55;2.65;;;;;;;;;;5055041;28;20036;-59
2021/06/04 10:34:17;;;;;;;4.75;3.35;;;;;;;;;;5055412;28;20465;-59
2021/06/04 10:36:46;;;;;;;3.38;2.60;;;;;;;;;;5054846;28;20021;-59
2021/06/04 10:39:32;;;;;;;3.55;2.75;;;;;;;;;;5054869;28;20340;-59
2021/06/04 10:42:06;;;;;;;4.88;2.58;;;;;;;;;;5055443;28;20036;-59
2021/06/04 10:44:50;;;;;;;2.92;2.25;;;;;;;;;;5053840;28;20025;-59
2021/06/04 10:47:16;;;;;;;3.38;2.65;;;;;;;;;;5055133;28;20083;-59
2021/06/04 10:49:42;;;;;;;5.07;3.50;;;;;;;;;;5054618;28;20029;-59
2021/06/04 10:52:13;;;;;;;6.68;4.47;;;;;;;;;;5054818;28;20029;-59
2021/06/04 10:54:47;;;;;;;6.28;3.50;;;;;;;;;;5054266;28;20064;-59
2021/06/04 10:57:32;;;;;;;5.78;3.25;;;;;;;;;;5055121;28;20044;-59
2021/06/04 10:59:59;;;;;;;5.57;3.30;;;;;;;;;;5054890;28;20045;-60
2021/06/04 11:02:40;;;;;;;4.63;3.30;;;;;;;;;;5054924;28;20032;-60
2021/06/04 11:05:15;;;;;;;4.53;3.33;;;;;;;;;;5054520;28;20029;-59
2021/06/04 11:07:44;;;;;;;4.35;3.70;;;;;;;;;;5054875;28;20029;-59
2021/06/04 11:10:18;;;;;;;4.75;3.40;;;;;;;;;;5054327;28;20063;-59
2021/06/04 11:13:02;;;;;;;5.07;3.80;;;;;;;;;;5054799;28;20021;-59
2021/06/04 11:15:35;;;;;;;7.30;3.90;;;;;;;;;;5054188;28;20036;-59
2021/06/04 11:18:19;;;;;;;5.70;4.70;;;;;;;;;;5054153;28;20112;-59
2021/06/04 11:20:51;;;;;;;8.52;5.43;;;;;;;;;;5054177;28;20025;-59
2021/06/04 11:23:20;;;;;;;7.30;5.22;;;;;;;;;;5054509;28;20037;-59
2021/06/04 11:25:54;;;;;;;6.47;5.87;;;;;;;;;;5053990;28;20494;-59
2021/06/04 11:28:36;;;;;;;8.40;5.45;;;;;;;;;;5054035;28;20112;-59
2021/06/04 11:31:05;;;;;;;7.65;5.65;;;;;;;;;;5054457;28;20087;-59
2021/06/04 11:33:33;;;;;;;6.47;5.60;;;;;;;;;;5036538;28;20025;-59
2021/06/04 11:35:59;;;;;;;7.20;6.43;;;;;;;;;;5054103;28;20013;-59
2021/06/04 11:38:34;;;;;;;6.75;5.68;;;;;;;;;;5054102;28;20075;-59
2021/06/04 11:41:07;;;;;;;13.88;11.20;;;;;;;;;;5053972;28;20021;-59
2021/06/04 11:43:35;;;;;;;8.13;7.00;;;;;;;;;;5053728;28;20039;-59
2021/06/04 11:46:12;;;;;;;6.85;5.20;;;;;;;;;;5053660;28;20371;-59
2021/06/04 11:48:40;;;;;;;4.80;4.30;;;;;;;;;;5053710;28;20447;-59
2021/06/04 11:51:18;;;;;;;6.05;4.60;;;;;;;;;;5053899;28;20025;-59
2021/06/04 11:53:54;;;;;;;6.30;5.40;;;;;;;;;;5053712;28;20029;-59
2021/06/04 11:56:40;;;;;;;8.00;5.63;;;;;;;;;;5057287;28;20052;-59
2021/06/04 11:59:07;;;;;;;8.02;5.05;;;;;;;;;;5060519;28;20421;-60
2021/06/04 12:01:40;;;;;;;8.15;5.82;;;;;;;;;;5060500;28;20411;-60
2021/06/04 12:04:09;;;;;;;5.78;4.43;;;;;;;;;;5060440;28;20021;-60
2021/06/04 12:06:53;;;;;;;5.78;5.20;;;;;;;;;;5060186;28;20057;-60
2021/06/04 12:09:31;;;;;;;5.05;4.55;;;;;;;;;;5060107;28;20017;-60
2021/06/04 12:12:16;;;;;;;5.70;4.03;;;;;;;;;;5060387;28;20024;-60
2021/06/04 12:15:03;;;;;;;7.03;3.85;;;;;;;;;;5060070;28;20032;-60
2021/06/04 12:17:29;;;;;;;10.48;4.47;;;;;;;;;;5010025;28;20037;-60
2021/06/04 12:20:15;;;;;;;5.15;4.45;;;;;;;;;;5059861;28;20463;-60
2021/06/04 12:22:43;;;;;;;5.70;4.43;;;;;;;;;;5059538;28;20033;-60
2021/06/04 12:25:10;;;;;;;7.88;5.35;;;;;;;;;;5042021;28;20029;-60
2021/06/04 12:27:48;;;;;;;5.72;4.57;;;;;;;;;;5060324;28;20028;-60
2021/06/04 12:30:33;;;;;;;6.30;4.65;;;;;;;;;;5060573;28;20469;-60
2021/06/04 12:33:01;;;;;;;7.00;5.07;;;;;;;;;;5060563;28;20029;-60
2021/06/04 12:35:41;;;;;;;8.50;5.22;;;;;;;;;;5060253;28;20078;-60
2021/06/04 12:38:23;;;;;;;9.35;5.30;;;;;;;;;;5059787;28;20589;-60
2021/06/04 12:40:50;;;;;;;6.53;4.43;;;;;;;;;;5060443;28;20043;-60
2021/06/04 12:43:20;;;;;;;6.00;3.53;;;;;;;;;;5059828;28;20013;-60
2021/06/04 12:45:58;;;;;;;5.43;3.20;;;;;;;;;;5059907;28;20032;-60
2021/06/04 12:48:29;;;;;;;5.63;3.58;;;;;;;;;;5059912;28;20028;-60
2021/06/04 12:50:58;;;;;;;8.00;4.10;;;;;;;;;;5060329;28;20427;-60
2021/06/04 12:53:26;;;;;;;6.05;3.83;;;;;;;;;;5059826;28;20025;-59
2021/06/04 12:56:12;;;;;;;4.35;3.30;;;;;;;;;;5060050;28;20025;-60
2021/06/04 12:59:01;;;;;;;3.92;2.97;;;;;;;;;;5059456;28;20017;-60
2021/06/04 13:01:29;;;;;;;4.15;3.17;;;;;;;;;;5058884;28;20029;-59
2021/06/04 13:04:11;;;;;;;5.15;3.33;;;;;;;;;;5059963;28;20028;-59
2021/06/04 13:06:52;;;;;;;4.07;3.00;;;;;;;;;;5059956;28;20056;-59
2021/06/04 13:09:24;;;;;;;3.25;2.90;;;;;;;;;;5055977;28;20082;-60
2021/06/04 13:11:50;;;;;;;4.20;3.20;;;;;;;;;;5056966;28;20105;-59
2021/06/04 13:14:35;;;;;;;4.88;3.40;;;;;;;;;;5056763;28;20082;-59
2021/06/04 13:17:13;;;;;;;4.55;3.15;;;;;;;;;;5056379;28;20036;-59
2021/06/04 13:19:39;;;;;;;5.20;3.67;;;;;;;;;;5056306;28;20510;-59
2021/06/04 13:22:24;;;;;;;6.03;4.63;;;;;;;;;;5056965;28;20033;-59
2021/06/04 13:24:54;;;;;;;4.88;4.05;;;;;;;;;;5056518;28;20039;-59
2021/06/04 13:27:22;;;;;;;7.18;3.97;;;;;;;;;;5056249;28;20028;-59
2021/06/04 13:29:54;;;;;;;5.30;3.55;;;;;;;;;;5056731;28;20498;-59
2021/06/04 13:32:41;;;;;;;5.20;3.42;;;;;;;;;;5056592;28;20081;-59
2021/06/04 13:35:19;;;;;;;3.72;3.03;;;;;;;;;;5056958;28;20025;-59
2021/06/04 13:37:49;;;;;;;7.18;4.30;;;;;;;;;;5055940;28;20025;-59
2021/06/04 13:40:17;;;;;;;6.47;3.17;;;;;;;;;;5056546;28;20033;-59
2021/06/04 13:42:45;;;;;;;4.97;3.30;;;;;;;;;;5055912;28;20135;-59
2021/06/04 13:45:15;;;;;;;6.40;3.58;;;;;;;;;;5055776;28;20051;-59
2021/06/04 13:47:41;;;;;;;;;;;;;;;;;;5056206;28;20025;-59
2021/06/04 13:50:15;;;;;;;3.45;3.08;;;;;;;;;;5055812;28;19911;-59
2021/06/04 13:52:55;;;;;;;4.95;3.92;;;;;;;;;;5056023;28;20075;-59
2021/06/04 13:55:23;;;;;;;4.03;3.60;;;;;;;;;;5038133;28;20029;-59
2021/06/04 13:57:50;;;;;;;4.82;3.58;;;;;;;;;;5056363;28;20312;-59
2021/06/04 14:00:26;;;;;;;3.95;3.53;;;;;;;;;;5055502;28;20367;-59
2021/06/04 14:03:11;;;;;;;4.63;3.63;;;;;;;;;;5055849;28;20111;-59
2021/06/04 14:05:37;;;;;;;3.88;3.47;;;;;;;;;;5055484;28;20029;-59
2021/06/04 14:08:06;;;;;;;5.20;3.55;;;;;;;;;;5055653;28;20414;-59
2021/06/04 14:10:37;;;;;;;7.45;4.28;;;;;;;;;;5055658;28;20025;-59
2021/06/04 14:13:14;;;;;;;7.97;3.78;;;;;;;;;;5055986;28;20021;-59
2021/06/04 14:15:40;;;;;;;5.43;4.20;;;;;;;;;;5055273;28;20052;-59
2021/06/04 14:18:26;;;;;;;5.63;3.90;;;;;;;;;;5055550;28;20045;-59
2021/06/04 14:20:52;;;;;;;7.00;3.83;;;;;;;;;;5037079;28;20029;-59
2021/06/04 14:23:29;;;;;;;4.47;3.58;;;;;;;;;;5054785;28;20025;-59
2021/06/04 14:26:14;;;;;;;5.18;3.97;;;;;;;;;;5055279;28;20091;-59
2021/06/04 14:28:40;;;;;;;5.45;3.13;;;;;;;;;;5055080;28;20033;-59
2021/06/04 14:31:07;;;;;;;6.80;3.88;;;;;;;;;;5055269;28;20017;-59
2021/06/04 14:33:43;;;;;;;7.13;4.47;;;;;;;;;;5054883;28;20040;-59
2021/06/04 14:36:09;;;;;;;4.60;3.47;;;;;;;;;;5055727;28;20366;-59
2021/06/04 14:38:41;;;;;;;7.00;3.90;;;;;;;;;;5054577;28;20021;-59
2021/06/04 14:41:07;;;;;;;4.50;3.38;;;;;;;;;;5055324;28;20029;-59
2021/06/04 14:43:34;;;;;;;7.75;4.13;;;;;;;;;;5054651;28;20390;-59
2021/06/04 14:46:00;;;;;;;5.50;3.85;;;;;;;;;;5054647;28;20108;-59
2021/06/04 14:48:27;;;;;;;7.68;4.60;;;;;;;;;;5055134;28;20474;-59
2021/06/04 14:50:56;;;;;;;4.63;3.70;;;;;;;;;;5055004;28;20025;-59
2021/06/04 14:53:22;;;;;;;10.93;4.35;;;;;;;;;;5054832;28;20083;-59
2021/06/04 14:55:48;;;;;;;5.45;4.25;;;;;;;;;;5054526;28;20082;-59
2021/06/04 14:58:15;;;;;;;4.45;4.03;;;;;;;;;;5054325;28;20039;-58
2021/06/04 15:00:41;;;;;;;6.20;4.03;;;;;;;;;;5055045;28;20055;-59
2021/06/04 15:03:09;;;;;;;5.85;3.80;;;;;;;;;;5054016;28;20032;-58